sensor_id;sensor_type;location;lat;lon;timestamp;pressure;altitude;pressure_sealevel;temperature;humidity
46598;BME280;32318;48.858;8.252;2022-11-09T00:03:57;99844.31;;;12.82;74.32
46598;BME280;32318;48.858;8.252;2022-11-09T00:11:58;99867.47;;;12.75;75.03
46598;BME280;32318;48.858;8.252;2022-11-09T00:20:04;99873.88;;;12.74;76.96
46598;BME280;32318;48.858;8.252;2022-11-09T00:28:04;99915.19;;;12.64;77.63
46598;BME280;32318;48.858;8.252;2022-11-09T00:36:07;99932.16;;;12.57;78.38
46598;BME280;32318;48.858;8.252;2022-11-09T00:44:07;99917.94;;;12.56;78.63
46598;BME280;32318;48.858;8.252;2022-11-09T00:52:08;99925.03;;;12.49;79.97
46598;BME280;32318;48.858;8.252;2022-11-09T01:00:08;99936.94;;;12.46;80.55
46598;BME280;32318;48.858;8.252;2022-11-09T01:08:09;99927.00;;;12.40;81.01
46598;BME280;32318;48.858;8.252;2022-11-09T01:16:13;99918.75;;;12.42;81.14
46598;BME280;32318;48.858;8.252;2022-11-09T01:24:13;99920.81;;;12.39;80.75
46598;BME280;32318;48.858;8.252;2022-11-09T01:32:14;99932.69;;;12.37;81.98
46598;BME280;32318;48.858;8.252;2022-11-09T01:40:14;99945.53;;;12.27;81.58
46598;BME280;32318;48.858;8.252;2022-11-09T01:48:17;99950.25;;;12.24;82.90
46598;BME280;32318;48.858;8.252;2022-11-09T01:56:19;99931.66;;;12.23;83.05
46598;BME280;32318;48.858;8.252;2022-11-09T02:04:29;99934.34;;;12.23;82.68
46598;BME280;32318;48.858;8.252;2022-11-09T02:12:33;99949.94;;;12.19;83.89
46598;BME280;32318;48.858;8.252;2022-11-09T02:20:51;99946.53;;;12.11;82.91
46598;BME280;32318;48.858;8.252;2022-11-09T02:28:53;99952.75;;;12.03;81.80
46598;BME280;32318;48.858;8.252;2022-11-09T02:36:54;99954.44;;;12.04;84.58
46598;BME280;32318;48.858;8.252;2022-11-09T02:44:58;99926.47;;;12.06;84.83
46598;BME280;32318;48.858;8.252;2022-11-09T02:52:58;99908.28;;;12.02;84.82
46598;BME280;32318;48.858;8.252;2022-11-09T03:00:59;99899.78;;;11.98;85.23
46598;BME280;32318;48.858;8.252;2022-11-09T03:09:03;99876.72;;;11.97;84.99
46598;BME280;32318;48.858;8.252;2022-11-09T03:17:05;99876.88;;;11.96;85.36
46598;BME280;32318;48.858;8.252;2022-11-09T03:25:08;99893.28;;;11.92;84.31
46598;BME280;32318;48.858;8.252;2022-11-09T03:33:09;99893.13;;;11.94;84.10
46598;BME280;32318;48.858;8.252;2022-11-09T03:41:09;99891.47;;;11.93;84.62
46598;BME280;32318;48.858;8.252;2022-11-09T03:49:09;99915.34;;;11.95;86.97
46598;BME280;32318;48.858;8.252;2022-11-09T03:57:09;99916.19;;;11.95;87.17
46598;BME280;32318;48.858;8.252;2022-11-09T04:05:10;99916.69;;;11.99;87.51
46598;BME280;32318;48.858;8.252;2022-11-09T04:13:10;99918.16;;;12.01;87.82
46598;BME280;32318;48.858;8.252;2022-11-09T04:21:10;99911.44;;;12.05;87.59
46598;BME280;32318;48.858;8.252;2022-11-09T04:29:11;99902.69;;;12.12;88.32
46598;BME280;32318;48.858;8.252;2022-11-09T04:37:11;99892.91;;;12.19;88.04
46598;BME280;32318;48.858;8.252;2022-11-09T04:45:11;99898.06;;;12.20;88.25
46598;BME280;32318;48.858;8.252;2022-11-09T04:53:13;99887.09;;;12.15;86.69
46598;BME280;32318;48.858;8.252;2022-11-09T05:01:14;99873.53;;;12.17;86.41
46598;BME280;32318;48.858;8.252;2022-11-09T05:09:14;99857.94;;;12.20;88.54
46598;BME280;32318;48.858;8.252;2022-11-09T05:17:15;99871.16;;;12.22;88.07
46598;BME280;32318;48.858;8.252;2022-11-09T05:25:15;99876.97;;;12.26;88.58
46598;BME280;32318;48.858;8.252;2022-11-09T05:33:15;99895.16;;;12.30;88.31
46598;BME280;32318;48.858;8.252;2022-11-09T05:41:16;99946.16;;;12.29;89.61
46598;BME280;32318;48.858;8.252;2022-11-09T05:49:16;99967.22;;;12.32;87.29
46598;BME280;32318;48.858;8.252;2022-11-09T05:57:16;99981.50;;;12.24;87.14
46598;BME280;32318;48.858;8.252;2022-11-09T06:05:17;99968.88;;;12.18;88.76
46598;BME280;32318;48.858;8.252;2022-11-09T06:13:19;99965.38;;;12.17;88.90
46598;BME280;32318;48.858;8.252;2022-11-09T06:21:19;99969.69;;;12.18;87.71
46598;BME280;32318;48.858;8.252;2022-11-09T06:29:19;99977.63;;;12.12;86.08
46598;BME280;32318;48.858;8.252;2022-11-09T06:37:20;99976.31;;;12.07;87.74
46598;BME280;32318;48.858;8.252;2022-11-09T06:45:20;99982.66;;;12.06;88.01
46598;BME280;32318;48.858;8.252;2022-11-09T06:53:20;99997.91;;;12.06;87.39
46598;BME280;32318;48.858;8.252;2022-11-09T07:01:23;100009.91;;;12.10;87.89
46598;BME280;32318;48.858;8.252;2022-11-09T07:09:26;100012.56;;;12.10;89.04
46598;BME280;32318;48.858;8.252;2022-11-09T07:17:29;100004.00;;;12.15;88.91
46598;BME280;32318;48.858;8.252;2022-11-09T07:25:30;99988.25;;;12.20;87.94
46598;BME280;32318;48.858;8.252;2022-11-09T07:33:31;99970.81;;;12.24;88.01
46598;BME280;32318;48.858;8.252;2022-11-09T07:41:32;99961.22;;;12.30;87.76
46598;BME280;32318;48.858;8.252;2022-11-09T07:49:32;99978.75;;;12.32;88.83
46598;BME280;32318;48.858;8.252;2022-11-09T07:57:33;99981.75;;;12.37;88.20
46598;BME280;32318;48.858;8.252;2022-11-09T08:05:33;100000.88;;;12.49;90.73
46598;BME280;32318;48.858;8.252;2022-11-09T08:13:34;99998.38;;;12.63;90.60
46598;BME280;32318;48.858;8.252;2022-11-09T08:21:35;99997.09;;;12.74;89.73
46598;BME280;32318;48.858;8.252;2022-11-09T08:29:35;100005.97;;;12.89;89.88
46598;BME280;32318;48.858;8.252;2022-11-09T08:37:36;100007.44;;;13.07;90.22
46598;BME280;32318;48.858;8.252;2022-11-09T08:45:38;100004.66;;;13.15;89.09
46598;BME280;32318;48.858;8.252;2022-11-09T08:53:38;100010.66;;;13.17;88.58
46598;BME280;32318;48.858;8.252;2022-11-09T09:01:39;100014.97;;;13.18;87.29
46598;BME280;32318;48.858;8.252;2022-11-09T09:09:39;100021.53;;;13.30;86.70
46598;BME280;32318;48.858;8.252;2022-11-09T09:17:39;100022.00;;;13.49;87.35
46598;BME280;32318;48.858;8.252;2022-11-09T09:25:40;100022.88;;;13.71;87.51
46598;BME280;32318;48.858;8.252;2022-11-09T09:33:40;100021.59;;;13.89;87.48
46598;BME280;32318;48.858;8.252;2022-11-09T09:41:55;100030.63;;;14.03;87.55
46598;BME280;32318;48.858;8.252;2022-11-09T09:50:44;100025.63;;;14.21;85.43
46598;BME280;32318;48.858;8.252;2022-11-09T09:58:29;100039.97;;;14.35;85.92
46598;BME280;32318;48.858;8.252;2022-11-09T10:06:39;100037.16;;;14.43;85.53
46598;BME280;32318;48.858;8.252;2022-11-09T10:23:11;100050.31;;;14.60;84.88
46598;BME280;32318;48.858;8.252;2022-11-09T10:31:17;100048.69;;;14.66;84.76
46598;BME280;32318;48.858;8.252;2022-11-09T10:39:20;100040.25;;;14.69;84.70
46598;BME280;32318;48.858;8.252;2022-11-09T10:47:21;100048.13;;;14.70;84.95
46598;BME280;32318;48.858;8.252;2022-11-09T10:55:26;100045.25;;;14.72;84.56
46598;BME280;32318;48.858;8.252;2022-11-09T11:03:28;100041.53;;;14.73;85.13
46598;BME280;32318;48.858;8.252;2022-11-09T11:11:30;100044.22;;;14.73;85.18
46598;BME280;32318;48.858;8.252;2022-11-09T11:19:38;100041.13;;;14.76;85.54
46598;BME280;32318;48.858;8.252;2022-11-09T11:27:46;100038.06;;;14.79;85.08
46598;BME280;32318;48.858;8.252;2022-11-09T11:36:03;100043.28;;;14.87;86.71
46598;BME280;32318;48.858;8.252;2022-11-09T12:00:22;100046.19;;;14.93;86.66
46598;BME280;32318;48.858;8.252;2022-11-09T12:33:48;100042.91;;;14.90;86.03
46598;BME280;32318;48.858;8.252;2022-11-09T12:41:50;100042.25;;;14.88;86.31
46598;BME280;32318;48.858;8.252;2022-11-09T12:49:53;100036.84;;;14.82;87.00
46598;BME280;32318;48.858;8.252;2022-11-09T12:57:55;100037.69;;;14.82;86.96
46598;BME280;32318;48.858;8.252;2022-11-09T13:06:20;100044.47;;;14.78;86.45
46598;BME280;32318;48.858;8.252;2022-11-09T13:30:40;100056.63;;;14.74;85.72
46598;BME280;32318;48.858;8.252;2022-11-09T13:38:41;100056.19;;;14.70;85.87
46598;BME280;32318;48.858;8.252;2022-11-09T13:46:43;100070.16;;;14.66;85.64
46598;BME280;32318;48.858;8.252;2022-11-09T13:54:52;100073.44;;;14.61;86.32
46598;BME280;32318;48.858;8.252;2022-11-09T14:03:03;100086.19;;;14.52;86.51
46598;BME280;32318;48.858;8.252;2022-11-09T14:27:17;100106.94;;;14.37;88.27
46598;BME280;32318;48.858;8.252;2022-11-09T14:35:30;100116.34;;;14.26;89.07
46598;BME280;32318;48.858;8.252;2022-11-09T14:51:38;100131.03;;;14.08;90.65
46598;BME280;32318;48.858;8.252;2022-11-09T14:59:41;100126.16;;;13.97;91.29
46598;BME280;32318;48.858;8.252;2022-11-09T15:07:44;100122.38;;;13.91;90.29
46598;BME280;32318;48.858;8.252;2022-11-09T15:15:51;100111.19;;;13.88;90.19
46598;BME280;32318;48.858;8.252;2022-11-09T15:40:10;100086.69;;;13.76;91.79
46598;BME280;32318;48.858;8.252;2022-11-09T15:48:11;100085.03;;;13.75;91.53
46598;BME280;32318;48.858;8.252;2022-11-09T15:56:20;100093.84;;;13.69;91.75
46598;BME280;32318;48.858;8.252;2022-11-09T16:04:20;100099.16;;;13.84;90.82
46598;BME280;32318;48.858;8.252;2022-11-09T16:12:21;100114.13;;;13.93;89.91
46598;BME280;32318;48.858;8.252;2022-11-09T16:20:21;100127.69;;;14.06;89.54
46598;BME280;32318;48.858;8.252;2022-11-09T16:28:22;100142.78;;;14.07;88.57
46598;BME280;32318;48.858;8.252;2022-11-09T16:36:24;100146.94;;;14.10;88.01
46598;BME280;32318;48.858;8.252;2022-11-09T16:44:25;100163.06;;;14.10;87.77
46598;BME280;32318;48.858;8.252;2022-11-09T17:01:05;100180.38;;;14.07;87.56
46598;BME280;32318;48.858;8.252;2022-11-09T17:09:06;100190.78;;;13.95;87.22
46598;BME280;32318;48.858;8.252;2022-11-09T17:17:15;100195.94;;;13.97;87.60
46598;BME280;32318;48.858;8.252;2022-11-09T17:25:15;100209.56;;;13.95;87.73
46598;BME280;32318;48.858;8.252;2022-11-09T17:33:16;100220.47;;;13.94;87.77
46598;BME280;32318;48.858;8.252;2022-11-09T17:41:18;100241.47;;;13.90;87.53
46598;BME280;32318;48.858;8.252;2022-11-09T17:49:19;100248.97;;;13.80;87.82
46598;BME280;32318;48.858;8.252;2022-11-09T17:57:19;100262.94;;;13.75;87.58
46598;BME280;32318;48.858;8.252;2022-11-09T18:05:20;100280.78;;;13.68;87.79
46598;BME280;32318;48.858;8.252;2022-11-09T18:13:20;100280.31;;;13.64;88.04
46598;BME280;32318;48.858;8.252;2022-11-09T18:21:20;100290.41;;;13.62;88.76
46598;BME280;32318;48.858;8.252;2022-11-09T18:29:22;100302.81;;;13.63;88.39
46598;BME280;32318;48.858;8.252;2022-11-09T18:37:22;100313.25;;;13.58;88.55
46598;BME280;32318;48.858;8.252;2022-11-09T18:45:23;100328.41;;;13.51;88.59
46598;BME280;32318;48.858;8.252;2022-11-09T18:53:25;100343.53;;;13.44;88.81
46598;BME280;32318;48.858;8.252;2022-11-09T19:01:26;100353.47;;;13.35;88.95
46598;BME280;32318;48.858;8.252;2022-11-09T19:09:26;100360.22;;;13.31;89.04
46598;BME280;32318;48.858;8.252;2022-11-09T19:17:34;100382.03;;;13.28;89.39
46598;BME280;32318;48.858;8.252;2022-11-09T19:25:36;100379.34;;;13.28;88.76
46598;BME280;32318;48.858;8.252;2022-11-09T19:33:36;100390.91;;;13.28;88.51
46598;BME280;32318;48.858;8.252;2022-11-09T19:41:37;100407.72;;;13.22;88.83
46598;BME280;32318;48.858;8.252;2022-11-09T19:49:37;100412.78;;;13.17;89.05
46598;BME280;32318;48.858;8.252;2022-11-09T19:57:37;100428.53;;;13.12;89.78
46598;BME280;32318;48.858;8.252;2022-11-09T20:05:38;100442.31;;;13.09;90.44
46598;BME280;32318;48.858;8.252;2022-11-09T20:13:39;100457.03;;;13.13;90.58
46598;BME280;32318;48.858;8.252;2022-11-09T20:21:40;100477.63;;;13.12;90.76
46598;BME280;32318;48.858;8.252;2022-11-09T20:29:40;100477.16;;;13.09;90.78
46598;BME280;32318;48.858;8.252;2022-11-09T20:37:41;100491.56;;;13.08;90.49
46598;BME280;32318;48.858;8.252;2022-11-09T20:45:41;100506.31;;;13.03;90.89
46598;BME280;32318;48.858;8.252;2022-11-09T20:53:41;100508.50;;;13.00;90.30
46598;BME280;32318;48.858;8.252;2022-11-09T21:01:42;100520.09;;;12.92;89.82
46598;BME280;32318;48.858;8.252;2022-11-09T21:09:45;100527.50;;;12.82;91.00
46598;BME280;32318;48.858;8.252;2022-11-09T21:17:46;100535.88;;;12.79;90.30
46598;BME280;32318;48.858;8.252;2022-11-09T21:25:46;100546.28;;;12.74;91.59
46598;BME280;32318;48.858;8.252;2022-11-09T21:34:05;100560.50;;;12.74;91.14
46598;BME280;32318;48.858;8.252;2022-11-09T21:42:06;100559.69;;;12.74;90.42
46598;BME280;32318;48.858;8.252;2022-11-09T21:50:07;100577.75;;;12.71;90.44
46598;BME280;32318;48.858;8.252;2022-11-09T21:58:08;100577.75;;;12.71;90.52
46598;BME280;32318;48.858;8.252;2022-11-09T22:06:08;100591.81;;;12.74;90.37
46598;BME280;32318;48.858;8.252;2022-11-09T22:14:13;100590.16;;;12.73;90.34
46598;BME280;32318;48.858;8.252;2022-11-09T22:22:32;100607.91;;;12.74;90.14
46598;BME280;32318;48.858;8.252;2022-11-09T22:30:33;100622.94;;;12.75;90.00
46598;BME280;32318;48.858;8.252;2022-11-09T22:38:33;100645.41;;;12.74;89.80
46598;BME280;32318;48.858;8.252;2022-11-09T22:46:33;100657.78;;;12.75;90.28
46598;BME280;32318;48.858;8.252;2022-11-09T22:54:34;100671.03;;;12.76;90.28
46598;BME280;32318;48.858;8.252;2022-11-09T23:02:34;100684.06;;;12.71;89.90
46598;BME280;32318;48.858;8.252;2022-11-09T23:10:34;100698.81;;;12.75;90.27
46598;BME280;32318;48.858;8.252;2022-11-09T23:18:35;100702.66;;;12.73;90.42
46598;BME280;32318;48.858;8.252;2022-11-09T23:26:54;100716.06;;;12.73;90.35
46598;BME280;32318;48.858;8.252;2022-11-09T23:34:54;100725.28;;;12.70;90.49
46598;BME280;32318;48.858;8.252;2022-11-09T23:43:06;100733.13;;;12.63;90.34
46598;BME280;32318;48.858;8.252;2022-11-09T23:51:07;100731.47;;;12.62;90.75
46598;BME280;32318;48.858;8.252;2022-11-09T23:59:08;100728.78;;;12.62;91.18
